createdAt,value
2022-08-26T00:00:11.032Z,100133.72
2022-08-26T00:02:40.559Z,100131.13
2022-08-26T00:05:09.848Z,100133.16
2022-08-26T00:07:37.812Z,100137.16
2022-08-26T00:10:06.778Z,100134.19
2022-08-26T00:12:37.299Z,100136.34
2022-08-26T00:15:07.555Z,100133.38
2022-08-26T00:17:36.377Z,100134.63
2022-08-26T00:20:11.738Z,100141.44
2022-08-26T00:22:39.647Z,100134.28
2022-08-26T00:25:10.088Z,100143.91
2022-08-26T00:27:37.934Z,100140.03
2022-08-26T00:30:10.316Z,100134.47
2022-08-26T00:32:38.373Z,100139.81
2022-08-26T00:35:10.423Z,100146.28
2022-08-26T00:37:38.668Z,100147.16
2022-08-26T00:40:08.594Z,100144.44
2022-08-26T00:42:39.218Z,100134.66
2022-08-26T00:45:15.232Z,100136.63
2022-08-26T00:47:47.017Z,100136.16
2022-08-26T00:50:19.668Z,100133.47
2022-08-26T00:52:48.947Z,100139.28
2022-08-26T00:55:22.230Z,100136.28
2022-08-26T00:57:52.980Z,100140.16
2022-08-26T01:00:25.210Z,100124.50
2022-08-26T01:02:54.861Z,100136.56
2022-08-26T01:05:25.370Z,100134.97
2022-08-26T01:07:53.235Z,100130.91
2022-08-26T01:10:23.609Z,100131.75
2022-08-26T01:12:57.307Z,100139.56
2022-08-26T01:15:32.758Z,100135.44
2022-08-26T01:18:01.575Z,100131.66
2022-08-26T01:20:39.037Z,100133.28
2022-08-26T01:23:10.591Z,100129.41
2022-08-26T01:25:44.688Z,100133.16
2022-08-26T01:28:16.219Z,100132.59
2022-08-26T01:33:18.744Z,100128.94
2022-08-26T01:35:46.773Z,100144.13
2022-08-26T01:38:18.687Z,100139.19
2022-08-26T01:40:46.965Z,100140.59
2022-08-26T01:43:18.388Z,100153.56
2022-08-26T01:45:47.740Z,100143.41
2022-08-26T01:48:20.240Z,100148.38
2022-08-26T01:50:49.170Z,100147.53
2022-08-26T01:53:20.193Z,100146.72
2022-08-26T01:55:53.876Z,100143.97
2022-08-26T01:58:25.747Z,100147.84
2022-08-26T02:00:54.671Z,100143.75
2022-08-26T02:03:22.893Z,100147.06
2022-08-26T02:05:54.987Z,100150.59
2022-08-26T02:08:30.042Z,100141.19
2022-08-26T02:10:58.581Z,100148.34
2022-08-26T02:13:30.080Z,100147.53
2022-08-26T02:16:00.717Z,100143.69
2022-08-26T02:18:30.418Z,100145.06
2022-08-26T02:20:58.442Z,100142.06
2022-08-26T02:23:28.252Z,100144.78
2022-08-26T02:26:01.643Z,100145.56
2022-08-26T02:28:35.208Z,100148.88
2022-08-26T02:31:03.611Z,100142.91
2022-08-26T02:33:32.827Z,100137.69
2022-08-26T02:36:01.113Z,100146.47
2022-08-26T02:38:30.290Z,100146.25
2022-08-26T02:40:58.420Z,100146.25
2022-08-26T02:43:32.750Z,100135.00
2022-08-26T02:46:02.414Z,100145.69
2022-08-26T02:48:31.491Z,100148.72
2022-08-26T02:51:00.272Z,100147.31
2022-08-26T02:53:28.120Z,100146.16
2022-08-26T02:56:01.527Z,100146.66
2022-08-26T02:58:30.996Z,100146.38
2022-08-26T03:00:58.830Z,100135.09
2022-08-26T03:03:26.981Z,100139.50
2022-08-26T03:05:55.761Z,100133.16
2022-08-26T03:08:23.901Z,100131.34
2022-08-26T03:10:53.203Z,100128.72
2022-08-26T03:13:22.326Z,100128.38
2022-08-26T03:15:50.198Z,100136.47
2022-08-26T03:18:18.025Z,100125.19
2022-08-26T03:20:48.366Z,100124.84
2022-08-26T03:23:16.623Z,100130.56
2022-08-26T03:25:50.432Z,100132.75
2022-08-26T03:28:19.310Z,100126.09
2022-08-26T03:30:48.046Z,100120.06
2022-08-26T03:33:17.202Z,100129.94
2022-08-26T03:35:47.325Z,100120.41
2022-08-26T03:38:15.698Z,100124.44
2022-08-26T03:40:44.598Z,100113.50
2022-08-26T03:43:15.979Z,100122.25
2022-08-26T03:45:47.446Z,100127.47
2022-08-26T03:48:16.607Z,100124.25
2022-08-26T03:50:44.435Z,100130.13
2022-08-26T03:53:13.213Z,100125.25
2022-08-26T03:55:42.266Z,100120.59
2022-08-26T03:58:12.156Z,100129.25
2022-08-26T04:00:40.037Z,100126.84
2022-08-26T04:03:09.938Z,100127.66
2022-08-26T04:05:40.373Z,100127.44
2022-08-26T04:08:08.330Z,100118.66
2022-08-26T04:10:39.029Z,100123.88
2022-08-26T04:13:07.147Z,100125.50
2022-08-26T04:15:35.362Z,100127.44
2022-08-26T04:18:03.195Z,100126.50
2022-08-26T04:20:31.886Z,100114.34
2022-08-26T04:23:01.264Z,100124.00
2022-08-26T04:25:29.619Z,100130.06
2022-08-26T04:27:57.505Z,100121.75
2022-08-26T04:30:25.555Z,100118.38
2022-08-26T04:32:53.382Z,100114.13
2022-08-26T04:35:25.749Z,100119.16
2022-08-26T04:37:55.381Z,100125.78
2022-08-26T04:40:27.554Z,100115.31
2022-08-26T04:42:55.658Z,100123.84
2022-08-26T04:45:24.448Z,100120.28
2022-08-26T04:47:56.767Z,100124.91
2022-08-26T04:50:27.064Z,100126.53
2022-08-26T04:52:56.058Z,100122.13
2022-08-26T04:55:38.394Z,100125.34
2022-08-26T04:58:10.278Z,100127.06
2022-08-26T05:00:39.607Z,100130.94
2022-08-26T05:03:10.626Z,100131.78
2022-08-26T05:05:40.815Z,100130.72
2022-08-26T05:08:09.970Z,100123.69
2022-08-26T05:10:45.768Z,100126.19
2022-08-26T05:13:15.559Z,100123.84
2022-08-26T05:15:47.704Z,100106.69
2022-08-26T05:18:19.863Z,100133.66
2022-08-26T05:20:50.690Z,100142.47
2022-08-26T05:23:19.499Z,100144.41
2022-08-26T05:25:53.625Z,100139.19
2022-08-26T05:28:24.012Z,100140.94
2022-08-26T05:30:52.659Z,100123.38
2022-08-26T05:33:21.310Z,100144.25
2022-08-26T05:35:50.187Z,100147.91
2022-08-26T05:38:21.321Z,100150.94
2022-08-26T05:40:52.848Z,100149.84
2022-08-26T05:43:21.466Z,100157.56
2022-08-26T05:45:51.294Z,100158.13
2022-08-26T05:48:22.645Z,100157.84
2022-08-26T05:50:53.889Z,100151.78
2022-08-26T05:53:23.934Z,100156.50
2022-08-26T05:55:56.293Z,100150.47
2022-08-26T05:58:27.708Z,100156.75
2022-08-26T06:01:01.322Z,100163.84
2022-08-26T06:03:32.064Z,100164.25
2022-08-26T06:06:00.517Z,100160.84
2022-08-26T06:08:30.248Z,100160.84
2022-08-26T06:11:02.317Z,100159.72
2022-08-26T06:13:32.029Z,100165.00
2022-08-26T06:16:04.235Z,100155.06
2022-08-26T06:18:35.429Z,100161.41
2022-08-26T06:21:14.969Z,100156.22
2022-08-26T06:24:01.210Z,100161.38
2022-08-26T06:26:31.002Z,100147.41
2022-08-26T06:28:58.937Z,100165.50
2022-08-26T06:31:28.089Z,100175.59
2022-08-26T06:33:58.220Z,100176.97
2022-08-26T06:36:28.475Z,100170.06
2022-08-26T06:38:59.973Z,100181.13
2022-08-26T06:41:28.354Z,100179.72
2022-08-26T06:43:57.939Z,100184.97
2022-08-26T06:46:25.992Z,100185.69
2022-08-26T06:48:55.195Z,100189.06
2022-08-26T06:51:25.328Z,100184.97
2022-08-26T06:53:56.123Z,100184.53
2022-08-26T06:56:28.209Z,100186.41
2022-08-26T06:58:57.337Z,100185.00
2022-08-26T07:01:27.935Z,100184.41
2022-08-26T07:03:58.666Z,100186.78
2022-08-26T07:06:28.216Z,100193.44
2022-08-26T07:09:03.832Z,100190.47
2022-08-26T07:11:33.466Z,100192.78
2022-08-26T07:14:02.729Z,100182.16
2022-08-26T07:16:30.800Z,100181.03
2022-08-26T07:18:58.969Z,100182.50
2022-08-26T07:21:29.222Z,100169.34
2022-08-26T07:24:01.326Z,100170.88
2022-08-26T07:26:31.569Z,100179.78
2022-08-26T07:29:02.442Z,100170.34
2022-08-26T07:31:39.498Z,100169.81
2022-08-26T07:34:10.763Z,100168.38
2022-08-26T07:36:38.919Z,100168.81
2022-08-26T07:39:07.225Z,100167.31
2022-08-26T07:41:36.691Z,100166.78
2022-08-26T07:44:06.287Z,100165.84
2022-08-26T07:46:36.534Z,100158.06
2022-08-26T07:49:04.519Z,100165.94
2022-08-26T07:51:33.222Z,100156.50
2022-08-26T07:54:01.151Z,100164.13
2022-08-26T07:56:29.362Z,100162.97
2022-08-26T07:58:57.221Z,100166.06
2022-08-26T08:01:28.993Z,100162.00
2022-08-26T08:04:00.370Z,100153.16
2022-08-26T08:06:30.971Z,100163.97
2022-08-26T08:09:00.779Z,100160.88
2022-08-26T08:11:31.003Z,100168.56
2022-08-26T08:14:00.784Z,100169.06
2022-08-26T08:16:32.224Z,100173.28
2022-08-26T08:19:01.290Z,100168.06
2022-08-26T08:21:31.604Z,100162.16
2022-08-26T08:23:59.833Z,100164.78
2022-08-26T08:26:28.354Z,100165.09
2022-08-26T08:28:58.121Z,100173.84
2022-08-26T08:31:55.879Z,100160.03
2022-08-26T08:34:18.182Z,100167.59
2022-08-26T08:36:46.745Z,100165.50
2022-08-26T08:39:14.871Z,100158.53
2022-08-26T08:41:54.495Z,100156.50
2022-08-26T08:46:56.815Z,100143.38
2022-08-26T08:49:28.390Z,100151.25
2022-08-26T08:52:03.290Z,100146.47
2022-08-26T08:54:33.861Z,100149.31
2022-08-26T08:57:11.426Z,100149.25
2022-08-26T08:59:45.158Z,100142.47
2022-08-26T09:02:24.584Z,100144.63
2022-08-26T09:05:04.474Z,100148.31
2022-08-26T09:07:36.892Z,100140.72
2022-08-26T09:10:18.667Z,100149.41
2022-08-26T09:12:48.679Z,100123.28
2022-08-26T09:15:21.418Z,100139.09
2022-08-26T09:17:59.884Z,100145.00
2022-08-26T09:20:41.693Z,100148.19
2022-08-26T09:23:13.400Z,100142.94
2022-08-26T09:25:47.927Z,100150.84
2022-08-26T09:28:18.638Z,100129.25
2022-08-26T09:30:48.311Z,100140.53
2022-08-26T09:33:19.159Z,100122.94
2022-08-26T09:35:49.023Z,100124.59
2022-08-26T09:38:26.540Z,100150.59
2022-08-26T09:40:59.732Z,100139.75
2022-08-26T09:43:29.085Z,100136.00
2022-08-26T09:46:13.488Z,100123.56
2022-08-26T09:48:42.711Z,100121.06
2022-08-26T09:51:29.281Z,100124.38
2022-08-26T09:53:59.405Z,100119.66
2022-08-26T09:56:29.453Z,100119.66
2022-08-26T09:58:58.445Z,100106.88
2022-08-26T10:01:32.092Z,100101.75
2022-08-26T10:04:10.342Z,100104.44
2022-08-26T10:06:43.102Z,100100.84
2022-08-26T10:09:14.873Z,100093.13
2022-08-26T10:11:51.165Z,100093.56
2022-08-26T10:14:24.417Z,100097.19
2022-08-26T10:16:58.070Z,100081.09
2022-08-26T10:19:55.667Z,100088.00
2022-08-26T10:22:27.940Z,100081.69
2022-08-26T10:24:59.759Z,100082.56
2022-08-26T10:27:49.738Z,100076.56
2022-08-26T10:30:24.043Z,100075.94
2022-08-26T10:32:56.584Z,100069.16
2022-08-26T10:35:26.967Z,100055.44
2022-08-26T10:38:02.818Z,100060.75
2022-08-26T10:40:38.596Z,100052.88
2022-08-26T10:43:11.117Z,100046.81
2022-08-26T10:45:43.575Z,100046.06
2022-08-26T10:48:17.366Z,100031.78
2022-08-26T10:50:48.291Z,100039.53
2022-08-26T10:53:25.226Z,100031.88
2022-08-26T10:56:01.553Z,100028.22
2022-08-26T10:58:49.269Z,100033.00
2022-08-26T11:01:40.771Z,100037.84
2022-08-26T11:04:22.385Z,100031.22
2022-08-26T11:06:50.708Z,100023.47
2022-08-26T11:09:47.711Z,100015.19
2022-08-26T11:12:50.314Z,100018.63
2022-08-26T11:15:51.618Z,100019.72
2022-08-26T11:18:38.468Z,100016.81
2022-08-26T11:21:49.513Z,100017.00
2022-08-26T11:24:42.295Z,100011.81
2022-08-26T11:27:42.513Z,100007.28
2022-08-26T11:30:41.466Z,100019.31
2022-08-26T11:33:09.979Z,100008.94
2022-08-26T11:35:48.908Z,100007.19
2022-08-26T11:38:24.198Z,100001.78
2022-08-26T11:41:12.119Z,100002.59
2022-08-26T11:43:42.520Z,99995.81
2022-08-26T11:46:12.812Z,100007.09
2022-08-26T11:48:42.969Z,99987.22
2022-08-26T11:51:13.512Z,99988.97
2022-08-26T11:53:44.618Z,99999.06
2022-08-26T11:56:27.275Z,99991.38
2022-08-26T11:59:02.943Z,99986.94
2022-08-26T12:01:35.499Z,99990.88
2022-08-26T12:04:05.286Z,99994.19
2022-08-26T12:06:43.380Z,99989.44
2022-08-26T12:09:21.454Z,99991.06
2022-08-26T12:11:49.423Z,99988.69
2022-08-26T12:14:21.694Z,99998.75
2022-08-26T12:16:49.853Z,99989.75
2022-08-26T12:19:26.367Z,99992.41
2022-08-26T12:22:01.477Z,99993.25
2022-08-26T12:24:30.086Z,99991.00
2022-08-26T12:27:16.739Z,99968.59
2022-08-26T12:29:48.472Z,99957.56
2022-08-26T12:32:19.282Z,99959.72
2022-08-26T12:34:49.893Z,99956.03
2022-08-26T12:37:18.862Z,99958.47
2022-08-26T12:39:47.874Z,99957.59
2022-08-26T12:42:41.971Z,99937.22
2022-08-26T12:45:11.681Z,99950.81
2022-08-26T12:47:44.133Z,99945.22
2022-08-26T12:50:19.318Z,99945.75
2022-08-26T12:52:56.781Z,99953.13
2022-08-26T12:55:27.662Z,99950.28
2022-08-26T12:58:13.507Z,99947.28
2022-08-26T13:00:44.515Z,99944.13
2022-08-26T13:03:47.928Z,99950.50
2022-08-26T13:06:27.803Z,99949.25
2022-08-26T13:08:57.060Z,99941.31
2022-08-26T13:11:28.206Z,99936.44
2022-08-26T13:13:59.194Z,99910.06
2022-08-26T13:16:28.995Z,99926.16
2022-08-26T13:18:59.445Z,99920.34
2022-08-26T13:21:30.038Z,99924.06
2022-08-26T13:24:08.649Z,99911.66
2022-08-26T13:26:37.482Z,99907.44
2022-08-26T13:29:10.013Z,99911.38
2022-08-26T13:31:40.893Z,99905.03
2022-08-26T13:34:09.208Z,99901.53
2022-08-26T13:36:37.437Z,99893.88
2022-08-26T13:39:05.872Z,99893.00
2022-08-26T13:41:34.432Z,99892.75
2022-08-26T13:44:02.313Z,99887.25
2022-08-26T13:46:30.917Z,99872.03
2022-08-26T13:49:00.714Z,99885.66
2022-08-26T13:51:30.067Z,99888.22
2022-08-26T13:53:59.244Z,99883.13
2022-08-26T13:56:29.532Z,99886.41
2022-08-26T13:58:58.327Z,99887.47
2022-08-26T14:01:27.289Z,99894.72
2022-08-26T14:03:55.438Z,99895.69
2022-08-26T14:06:27.540Z,99903.22
2022-08-26T14:08:55.970Z,99920.22
2022-08-26T14:11:26.099Z,99938.56
2022-08-26T14:13:54.022Z,99933.16
2022-08-26T14:16:25.714Z,99934.66
2022-08-26T14:18:54.562Z,99925.59
2022-08-26T14:21:26.945Z,99937.25
2022-08-26T14:24:01.059Z,99933.78
2022-08-26T14:26:30.075Z,99937.75
2022-08-26T14:28:58.919Z,99936.56
2022-08-26T14:31:28.993Z,99934.25
2022-08-26T14:33:58.852Z,99934.84
2022-08-26T14:36:32.209Z,99945.09
2022-08-26T14:39:02.122Z,99938.19
2022-08-26T14:41:33.171Z,99914.00
2022-08-26T14:44:05.181Z,99914.56
2022-08-26T14:46:41.331Z,99925.19
2022-08-26T14:49:10.655Z,99918.88
2022-08-26T14:51:40.880Z,99923.88
2022-08-26T14:54:16.077Z,99934.13
2022-08-26T14:56:51.239Z,99916.31
2022-08-26T14:59:21.170Z,99929.22
2022-08-26T15:01:49.519Z,99927.16
2022-08-26T15:04:17.694Z,99922.47
2022-08-26T15:06:47.236Z,99910.28
2022-08-26T15:09:15.757Z,99912.38
2022-08-26T15:11:47.671Z,99907.72
2022-08-26T15:14:19.388Z,99932.16
2022-08-26T15:16:48.573Z,99934.94
2022-08-26T15:19:17.369Z,99940.25
2022-08-26T15:21:47.446Z,99941.06
2022-08-26T15:24:17.036Z,99934.13
2022-08-26T15:26:45.816Z,99931.22
2022-08-26T15:29:14.555Z,99932.75
2022-08-26T15:31:42.987Z,99937.84
2022-08-26T15:34:16.690Z,99928.41
2022-08-26T15:36:47.836Z,99947.28
2022-08-26T15:39:17.154Z,99942.16
2022-08-26T15:41:45.136Z,99949.13
2022-08-26T15:44:13.991Z,99945.88
2022-08-26T15:46:42.158Z,99947.28
2022-08-26T15:49:18.188Z,99945.41
2022-08-26T15:51:52.604Z,99942.38
2022-08-26T15:54:22.896Z,99951.72
2022-08-26T15:56:53.013Z,99941.81
2022-08-26T15:59:23.044Z,99948.56
2022-08-26T16:01:52.125Z,99943.31
2022-08-26T16:04:20.152Z,99946.59
2022-08-26T16:06:52.015Z,99931.44
2022-08-26T16:09:21.245Z,99937.59
2022-08-26T16:11:49.123Z,99933.06
2022-08-26T16:14:17.491Z,99934.88
2022-08-26T16:16:45.449Z,99941.47
2022-08-26T16:19:13.508Z,99953.53
2022-08-26T16:21:42.435Z,99944.25
2022-08-26T16:24:11.956Z,99969.16
2022-08-26T16:26:41.969Z,99960.44
2022-08-26T16:29:12.499Z,99956.47
2022-08-26T16:31:40.785Z,99970.75
2022-08-26T16:34:10.117Z,99955.00
2022-08-26T16:36:39.577Z,99974.56
2022-08-26T16:39:09.467Z,99975.94
2022-08-26T16:41:38.871Z,99971.06
2022-08-26T16:44:08.063Z,99978.41
2022-08-26T16:46:36.619Z,99980.13
2022-08-26T16:49:04.768Z,99981.41
2022-08-26T16:51:37.719Z,99983.25
2022-08-26T16:54:07.380Z,99979.19
2022-08-26T16:56:35.993Z,99988.03
2022-08-26T16:59:06.758Z,99979.53
2022-08-26T17:01:35.110Z,99979.53
2022-08-26T17:04:03.239Z,99983.03
2022-08-26T17:06:31.151Z,99991.41
2022-08-26T17:08:59.010Z,100009.41
2022-08-26T17:11:26.879Z,99991.97
2022-08-26T17:13:54.720Z,99999.19
2022-08-26T17:16:26.845Z,100000.75
2022-08-26T17:18:56.371Z,100003.38
2022-08-26T17:21:24.937Z,100009.81
2022-08-26T17:23:53.190Z,100019.19
2022-08-26T17:26:21.780Z,99994.63
2022-08-26T17:28:50.310Z,100007.91
2022-08-26T17:31:18.644Z,100007.84
2022-08-26T17:33:53.974Z,100010.97
2022-08-26T17:36:27.534Z,99995.00
2022-08-26T17:38:57.167Z,100010.94
2022-08-26T17:41:25.267Z,100029.44
2022-08-26T17:43:53.388Z,100028.94
2022-08-26T17:46:21.590Z,100045.88
2022-08-26T17:48:51.242Z,100037.22
2022-08-26T17:51:20.280Z,100038.38
2022-08-26T17:53:49.181Z,100026.00
2022-08-26T17:56:19.856Z,100067.41
2022-08-26T17:58:51.281Z,100052.19
2022-08-26T18:01:20.030Z,100035.47
2022-08-26T18:03:48.215Z,100062.16
2022-08-26T18:06:17.720Z,100062.28
2022-08-26T18:08:46.131Z,100038.22
2022-08-26T18:11:16.628Z,100061.78
2022-08-26T18:13:47.188Z,100061.91
2022-08-26T18:16:17.685Z,100069.13
2022-08-26T18:18:46.426Z,100069.97
2022-08-26T18:21:15.572Z,100069.25
2022-08-26T18:23:47.868Z,100072.66
2022-08-26T18:26:21.110Z,100072.66
2022-08-26T18:28:49.127Z,100069.53
2022-08-26T18:31:17.260Z,100070.66
2022-08-26T18:33:45.791Z,100082.72
2022-08-26T18:36:18.412Z,100081.19
2022-08-26T18:38:48.232Z,100077.44
2022-08-26T18:41:20.524Z,100070.56
2022-08-26T18:43:48.512Z,100075.25
2022-08-26T18:46:16.434Z,100079.53
2022-08-26T18:48:45.258Z,100078.69
2022-08-26T18:51:20.255Z,100086.06
2022-08-26T18:53:49.920Z,100089.38
2022-08-26T18:56:18.784Z,100089.22
2022-08-26T18:58:46.891Z,100094.66
2022-08-26T19:01:16.065Z,100088.41
2022-08-26T19:03:44.403Z,100080.75
2022-08-26T19:06:17.237Z,100096.78
2022-08-26T19:08:46.056Z,100100.97
2022-08-26T19:11:32.204Z,100093.59
2022-08-26T19:14:08.067Z,100092.81
2022-08-26T19:16:36.778Z,100101.25
2022-08-26T19:19:05.797Z,100106.06
2022-08-26T19:21:35.117Z,100113.44
2022-08-26T19:24:06.939Z,100126.13
2022-08-26T19:26:38.810Z,100123.03
2022-08-26T19:29:06.814Z,100127.81
2022-08-26T19:31:34.772Z,100134.50
2022-08-26T19:34:02.574Z,100141.19
2022-08-26T19:36:31.170Z,100137.47
2022-08-26T19:39:00.209Z,100142.88
2022-08-26T19:41:36.840Z,100148.50
2022-08-26T19:44:09.515Z,100150.84
2022-08-26T19:49:11.375Z,100155.19
2022-08-26T19:51:39.224Z,100156.31
2022-08-26T19:54:07.209Z,100145.69
2022-08-26T19:56:35.189Z,100145.97
2022-08-26T19:59:03.794Z,100147.31
2022-08-26T20:01:33.220Z,100148.06
2022-08-26T20:04:01.300Z,100135.34
2022-08-26T20:06:29.199Z,100123.44
2022-08-26T20:08:57.114Z,100140.78
2022-08-26T20:11:25.111Z,100136.47
2022-08-26T20:13:53.097Z,100148.97
2022-08-26T20:16:21.185Z,100128.47
2022-08-26T20:19:08.072Z,100141.22
2022-08-26T20:21:38.980Z,100138.31
2022-08-26T20:24:10.043Z,100124.56
2022-08-26T20:26:40.119Z,100136.09
2022-08-26T20:29:09.662Z,100144.41
2022-08-26T20:31:38.400Z,100147.25
2022-08-26T20:34:08.151Z,100145.41
2022-08-26T20:36:36.051Z,100150.56
2022-08-26T20:39:04.580Z,100150.94
2022-08-26T20:41:32.883Z,100157.75
2022-08-26T20:44:01.853Z,100162.47
2022-08-26T20:46:29.756Z,100163.06
2022-08-26T20:48:58.276Z,100129.75
2022-08-26T20:51:27.536Z,100164.34
2022-08-26T20:53:55.631Z,100167.13
2022-08-26T20:56:24.974Z,100171.63
2022-08-26T20:58:55.365Z,100163.94
2022-08-26T21:01:26.532Z,100174.69
2022-08-26T21:03:57.405Z,100175.50
2022-08-26T21:06:26.873Z,100161.47
2022-08-26T21:08:55.126Z,100168.97
2022-08-26T21:11:23.865Z,100159.53
2022-08-26T21:14:16.532Z,100142.81
2022-08-26T21:16:41.133Z,100178.59
2022-08-26T21:19:11.702Z,100172.13
2022-08-26T21:21:41.841Z,100178.00
2022-08-26T21:24:10.182Z,100179.41
2022-08-26T21:26:38.130Z,100179.81
2022-08-26T21:29:07.774Z,100179.31
2022-08-26T21:31:35.650Z,100182.06
2022-08-26T21:34:03.569Z,100182.06
2022-08-26T21:36:31.786Z,100179.72
2022-08-26T21:39:01.460Z,100183.34
2022-08-26T21:41:29.754Z,100176.53
2022-08-26T21:43:59.649Z,100194.41
2022-08-26T21:46:30.278Z,100189.06
2022-08-26T21:49:00.641Z,100180.81
2022-08-26T21:51:30.415Z,100192.94
2022-08-26T21:53:59.850Z,100182.47
2022-08-26T21:56:31.528Z,100195.69
2022-08-26T21:59:00.238Z,100199.53
2022-08-26T22:01:31.875Z,100202.75
2022-08-26T22:04:00.038Z,100206.44
2022-08-26T22:06:28.670Z,100194.31
2022-08-26T22:08:57.176Z,100199.97
2022-08-26T22:11:25.959Z,100192.53
2022-08-26T22:13:56.807Z,100198.38
2022-08-26T22:16:26.815Z,100193.38
2022-08-26T22:18:57.347Z,100203.59
2022-08-26T22:21:27.875Z,100200.88
2022-08-26T22:23:58.198Z,100205.47
2022-08-26T22:26:28.759Z,100159.44
2022-08-26T22:29:00.090Z,100204.44
2022-08-26T22:31:37.639Z,100205.84
2022-08-26T22:34:08.302Z,100191.56
2022-08-26T22:36:42.687Z,100214.94
2022-08-26T22:39:13.053Z,100183.94
2022-08-26T22:41:41.270Z,100200.41
2022-08-26T22:44:11.586Z,100192.63
2022-08-26T22:49:10.278Z,100207.56
2022-08-26T22:51:38.245Z,100219.25
2022-08-26T22:54:06.647Z,100218.66
2022-08-26T22:56:34.659Z,100218.53
2022-08-26T22:59:02.619Z,100205.72
2022-08-26T23:01:32.488Z,100216.72
2022-08-26T23:04:00.551Z,100210.53
2022-08-26T23:06:28.514Z,100211.63
2022-08-26T23:08:56.375Z,100212.81
2022-08-26T23:11:26.373Z,100197.94
2022-08-26T23:13:54.194Z,100212.59
2022-08-26T23:16:22.190Z,100223.59
2022-08-26T23:18:51.472Z,100228.75
2022-08-26T23:21:19.488Z,100223.09
2022-08-26T23:23:47.362Z,100230.91
2022-08-26T23:26:17.669Z,100220.59
2022-08-26T23:28:45.915Z,100228.38
2022-08-26T23:31:14.791Z,100222.53
2022-08-26T23:34:00.619Z,100223.22
2022-08-26T23:36:32.085Z,100233.19
2022-08-26T23:39:03.020Z,100225.88
2022-08-26T23:41:30.813Z,100223.13
2022-08-26T23:44:02.827Z,100231.84
2022-08-26T23:46:31.793Z,100230.28
2022-08-26T23:48:59.738Z,100226.16
2022-08-26T23:51:45.348Z,100223.13
2022-08-26T23:54:15.323Z,100204.44
2022-08-26T23:56:43.184Z,100213.78
2022-08-26T23:59:10.995Z,100222.09
